Weather observations for the past three days for
Richard I. Bong Airport
Imperial (Metric)
Date Time (cdt) Wind (mph) Vis. (mi.) Weather Sky Cond. Temperature (ºF) Relative Humidity Wind Chill (°F) Heat Index (°F) Pressure Precipitation (in)
Air Dwpt 6 hour altimeter (in) sea level (mb) 1 hr 3 hr 6 hr
Max. Min.
04 17:55 NE 9 G 17 10.00 Overcast OVC004 62.1 59.9 93% 30.01 0.0
04 17:35 NE 9 G 20 10.00 Overcast BKN006 OVC010 62.1 59.9 93% 30.01 0.0
04 17:15 NE 10 G 16 10.00 Overcast BKN006 OVC010 62.6 60.1 92% 30.01 0.0
04 16:55 NE 10 10.00 Overcast BKN006 OVC012 62.6 59.9 91% 30.01 0.0
04 16:35 NE 12 G 20 10.00 Overcast SCT006 BKN012 OVC020 62.8 59.9 90% 30 0.0
04 16:15 NE 10 G 17 10.00 Overcast BKN006 OVC010 62.8 60.1 91% 30 0.0
04 15:55 NE 9 G 16 10.00 Overcast OVC006 63.5 60.6 90% 30 0.0
04 15:35 E 9 G 16 10.00 Overcast OVC008 63.7 60.4 89% 30 0.0
04 15:15 NE 7 G 16 10.00 Overcast BKN008 OVC013 64.4 60.8 88% 29.99 0.0
04 14:55 NE 9 10.00 Overcast BKN010 OVC014 64.4 60.8 88% 29.99 0.0
04 14:35 NE 12 G 16 10.00 Overcast OVC010 63.7 60.6 90% 29.99 0.0
04 14:15 NE 12 G 17 10.00 Overcast OVC008 63.7 60.4 89% 29.99 0.0
04 13:55 NE 9 10.00 Overcast OVC006 63.1 60.8 92% 29.98 0.0
04 13:35 NE 10 G 17 10.00 Overcast OVC004 62.8 60.8 93% 29.98 0.0
04 13:15 NE 10 G 17 10.00 Overcast OVC004 62.6 61 94% 29.98 0.0
04 12:55 NE 9 7.00 Overcast OVC002 62.4 61.3 62.6 60.3 96% 29.98 0.0
04 12:35 NE 10 G 16 4.00 Fog/Mist OVC002 62.1 61.2 97% 29.98 0.0
04 12:15 NE 14 G 20 3.00 Fog/Mist OVC002 62.1 61.2 97% 29.98 0.0
04 11:55 NE 10 G 17 1.75 Fog/Mist OVC002 62.4 61.5 97% 29.97 0.0
04 11:35 NE 13 G 17 2.00 Fog/Mist OVC002 61.9 61 97% 29.97 0.0
04 11:15 NE 10 G 17 1.75 Fog/Mist OVC002 61.7 60.8 97% 29.97 0.0
04 10:55 NE 9 G 18 1.75 Fog/Mist OVC002 61.7 60.8 97% 29.97 0.0
04 10:35 NE 13 G 21 1.50 Light Drizzle OVC002 61.2 60.3 97% 29.96 0.0
04 10:15 NE 13 G 20 2.00 Fog/Mist OVC002 61 60.1 97% 29.96 0.0
04 09:55 NE 14 G 23 1.50 Fog/Mist OVC002 61 60.1 97% 29.95 0.0
04 09:35 NE 10 G 18 1.50 Light Drizzle OVC002 61 60.1 97% 29.94 0.0
04 09:15 NE 12 G 17 1.25 Light Drizzle OVC002 61.2 60.3 97% 29.94 0.0
04 08:55 NE 10 G 17 1.25 Fog/Mist OVC002 61.2 60.3 97% 29.94 0.0
04 08:35 NE 7 1.50 Fog/Mist OVC002 61.2 60.3 97% 29.93 0.0
04 08:15 NE 7 1.50 Fog/Mist OVC002 61 60.1 97% 29.91 0.0
04 07:55 NE 10 G 17 1.50 Fog/Mist OVC002 60.8 59.5 96% 29.91 0.0
04 07:35 NE 9 G 17 1.75 Fog/Mist OVC002 60.4 59.4 96% 29.9 0.0
04 07:15 NE 9 2.00 Fog/Mist OVC004 60.3 59 96% 29.89 0.0
04 06:55 NE 12 G 20 5.00 Fog/Mist OVC004 60.1 59 61.7 59.9 96% 29.89 0.0
04 06:35 NE 12 G 20 7.00 Overcast OVC004 60.3 59 96% 29.88 0.0
04 06:15 NE 8 7.00 Overcast OVC006 60.4 59 95% 29.88 0.0
04 05:55 NE 8 10.00 Overcast OVC006 60.1 58.5 94% 29.88 0.0
04 05:35 NE 10 10.00 Overcast OVC006 59.9 58.1 94% 29.88 0.0
04 05:15 NE 9 10.00 Overcast OVC008 59.9 58.1 94% 29.87 0.0
04 04:55 NE 12 10.00 Overcast OVC010 60.3 58.3 93% 29.87 0.0
04 04:35 NE 10 G 17 10.00 Overcast OVC010 60.3 58.5 94% 29.87 0.0
04 04:20 NE 12 G 16 10.00 Overcast OVC010 60.4 59 95% 29.87 0.0
04 03:55 NE 8 10.00 Overcast OVC006 60.8 59.2 94% 29.89 0.0
04 03:35 NE 10 10.00 Overcast BKN006 BKN028 OVC039 60.8 59.4 95% 29.88 0.0
04 03:15 SE 8 G 17 10.00 Rain SCT024 BKN040 OVC070 61.2 59.4 94% 29.9 0.0
04 02:55 NE 12 G 17 2.50 Heavy Rain SCT011 OVC021 61.2 59.2 93% 29.91 0.0
04 02:35 N 14 G 29 10.00 Light Rain BKN006 OVC012 61.3 58.8 91% 29.94 0.0
04 02:15 NE 14 G 21 10.00 Overcast OVC006 60.3 58.1 93% 29.9 0.0
04 01:55 NE 14 G 22 10.00 Overcast OVC008 60.3 58.1 93% 29.87 0.0
04 01:35 NE 9 10.00 Overcast OVC008 61.2 59 93% 29.89 0.0
04 01:15 NE 10 10.00 Overcast OVC008 61.3 59.2 93% 29.9 0.0
04 00:55 NE 10 G 18 10.00 Overcast OVC008 61.3 59 63.7 61 92% 29.91 0.0
04 00:35 E 13 G 21 10.00 Overcast BKN010 OVC033 61.7 59 91% 29.91 0.0
04 00:15 E 13 G 17 10.00 Overcast OVC033 61.5 58.8 91% 29.91 0.0
03 23:55 NE 12 G 17 10.00 Overcast SCT022 OVC035 61.3 58.8 91% 29.92 0.0
03 23:35 NE 16 G 23 10.00 Light Rain OVC022 61.2 58.6 91% 29.92 0.0
03 23:15 NE 13 G 24 10.00 Light Drizzle OVC020 61.2 59 93% 29.93 0.0
03 22:55 NE 12 G 20 10.00 Overcast BKN020 BKN034 OVC042 61.2 59.4 94% 29.93 0.0
03 22:35 NE 13 G 20 5.00 Light Rain SCT034 OVC042 61.2 59.5 94% 29.91 0.0
03 22:15 NE 14 G 20 10.00 Light Rain SCT029 SCT036 OVC046 61.7 59.9 94% 29.93 0.0
03 21:55 NE 13 G 24 7.00 Light Rain SCT011 BKN029 OVC050 62.1 59.9 93% 29.94 0.0
03 21:35 N 13 G 24 5.00 Heavy Rain SCT020 BKN038 OVC060 62.6 59.4 89% 29.96 0.0
03 21:15 NE 13 G 21 10.00 Light Rain SCT060 OVC070 62.6 59 88% 29.89 0.0
03 20:55 NE 10 G 22 10.00 Overcast BKN075 OVC080 63 59 87% 29.89 0.0
03 20:35 NE 14 G 18 10.00 Mostly Cloudy BKN060 63 59 87% 29.88 0.0
03 20:15 NE 10 G 17 10.00 Overcast BKN060 OVC075 63 59 87% 29.88 0.0
03 19:55 NE 14 G 21 10.00 Overcast OVC060 63.1 59.2 87% 29.88 0.0
03 19:35 NE 10 G 21 10.00 Overcast OVC050 63.5 59 85% 29.89 0.0
03 19:15 NE 16 G 22 10.00 Overcast BKN050 OVC060 63.5 59 85% 29.88 0.0
03 18:55 NE 12 G 22 10.00 Overcast OVC060 63.9 59 69.1 63.9 84% 29.87 0.0
03 18:35 NE 16 G 22 10.00 Mostly Cloudy BKN060 64 59 84% 29.87 0.0
03 18:15 NE 15 G 22 10.00 Partly Cloudy SCT060 64.4 59 83% 29.87 0.0
03 17:55 NE 14 G 23 10.00 Fair CLR 65.8 59 79% 29.86 0.0
03 17:35 NE 17 G 25 10.00 Fair CLR 66.9 59.4 77% 29.85 0.0
03 17:15 NE 15 G 24 10.00 Fair CLR 66.4 59.7 79% 29.86 0.0
03 16:55 NE 14 G 23 10.00 Fair CLR 66.9 59.7 78% 29.86 0.0
03 16:35 NE 15 G 23 10.00 Partly Cloudy SCT070 68 60.1 76% 29.87 0.0
03 16:15 NE 13 G 22 10.00 Mostly Cloudy BKN070 66.2 60.1 81% 29.87 0.0
03 15:55 NE 18 G 26 10.00 Fair CLR 67.8 59.9 76% 29.87 0.0
03 15:35 NE 17 G 23 10.00 Partly Cloudy SCT049 SCT075 68.5 60.6 76% 29.87 0.0
03 15:15 NE 17 G 24 10.00 Overcast BKN049 OVC080 68.2 60.3 76% 29.88 0.0
03 14:55 NE 17 G 24 10.00 Overcast SCT046 BKN055 OVC080 68 60.4 77% 29.88 0.0
03 14:35 NE 13 G 22 10.00 Overcast BKN046 OVC055 67.1 60.1 78% 29.89 0.0
03 14:15 NE 18 G 23 10.00 Overcast SCT048 OVC065 68.2 60.1 75% 29.89 0.0
03 13:55 NE 15 G 24 10.00 Mostly Cloudy SCT047 BKN065 BKN075 66.6 59.5 78% 29.9 0.0
03 13:35 NE 12 G 25 10.00 Partly Cloudy SCT040 SCT065 68.7 60.6 76% 29.9 0.0
03 13:15 NE 14 G 22 10.00 Mostly Cloudy BKN042 68.2 60.6 77% 29.91 0.0
03 12:55 NE 15 G 23 10.00 Mostly Cloudy BKN042 67.5 60.3 68.9 61.9 78% 29.92 0.0
03 12:35 NE 15 G 24 10.00 Partly Cloudy SCT042 67.6 59.9 76% 29.91 0.0
03 12:15 NE 15 G 21 10.00 Partly Cloudy SCT042 SCT050 68.7 60.4 75% 29.91 0.0
03 11:55 NE 13 G 20 10.00 Mostly Cloudy BKN044 BKN050 68.2 60.1 75% 29.92 0.0
03 11:35 NE 14 G 21 10.00 Overcast BKN044 OVC050 65.7 59.5 81% 29.93 0.0
03 11:15 NE 14 G 21 10.00 Mostly Cloudy SCT042 BKN050 66.6 59.5 78% 29.93 0.0
03 10:55 NE 15 G 21 10.00 Overcast BKN042 OVC060 67.1 60.1 78% 29.93 0.0
03 10:35 NE 15 G 21 10.00 Overcast SCT008 BKN042 OVC060 66.4 60.1 80% 29.94 0.0
03 10:15 NE 10 G 21 10.00 Overcast OVC008 66 59.5 80% 29.93 0.0
03 09:55 NE 14 G 18 10.00 Overcast OVC008 66.2 60.1 81% 29.94 0.0
03 09:40 NE 8 G 17 10.00 Overcast OVC006 64.9 59.9 84% 29.94 0.0
03 09:15 NE 9 G 18 10.00 Overcast OVC006 63.7 59.5 86% 29.94 0.0
03 08:55 NE 10 10.00 Overcast OVC006 63.7 59.9 88% 29.95 0.0
03 08:35 NE 8 10.00 Overcast OVC006 63.1 59.9 89% 29.95 0.0
03 08:15 NE 7 10.00 Overcast OVC006 63 59.5 89% 29.95 0.0
03 07:55 NE 8 10.00 Overcast OVC006 62.6 59 88% 29.94 0.0
03 07:35 NE 10 10.00 Overcast OVC006 62.1 59 90% 29.94 0.0
03 07:15 NE 10 10.00 Overcast OVC006 62.1 59 90% 29.94 0.0
03 06:55 NE 9 10.00 Overcast OVC006 61.9 58.6 64 61 89% 29.93 0.0
03 06:35 NE 6 10.00 Partly Cloudy SCT006 61.2 58.5 91% 29.93 0.0
03 06:15 NE 6 10.00 Fair CLR 61.2 58.3 90% 29.93 0.0
03 05:55 NE 8 10.00 Fair CLR 61.7 58.3 89% 29.93 0.0
03 05:35 NE 6 10.00 Fair CLR 61.7 58.3 89% 29.93 0.0
03 05:15 NE 7 10.00 Fair CLR 61.3 58.5 90% 29.92 0.0
03 04:55 NE 5 10.00 Fair CLR 61.2 58.5 91% 29.92 0.0
03 04:35 NE 5 10.00 Fair CLR 61.7 58.1 88% 29.92 0.0
03 04:20 NE 7 10.00 Fair CLR 61.9 57.9 87% 29.91 0.0
03 03:55 NE 6 10.00 Fair CLR 61.9 57.9 87% 29.92 0.0
03 03:35 NE 6 10.00 Fair CLR 61.7 58.3 89% 29.92 0.0
03 03:15 NE 6 10.00 Fair CLR 61.9 58.5 89% 29.92 0.0
03 02:55 NE 6 10.00 Partly Cloudy SCT100 61.7 59 91% 29.92 0.0
03 02:35 NE 6 10.00 Mostly Cloudy BKN100 62.2 59.4 90% 29.92 0.0
03 02:15 NE 6 10.00 Mostly Cloudy BKN100 62.6 59.5 90% 29.93 0.0
03 01:55 NE 7 10.00 Mostly Cloudy BKN110 63 59.4 88% 29.93 0.0
03 01:35 NE 7 10.00 Overcast OVC110 63.5 59 85% 29.93 0.0
03 01:15 NE 7 10.00 Mostly Cloudy BKN110 64 58.5 82% 29.93 0.0
03 00:55 NE 5 10.00 Partly Cloudy SCT100 62.6 58.3 72.9 55.9 86% 29.94 0.0
03 00:35 NE 3 10.00 Fair CLR 62.6 58.3 86% 29.94 0.0
03 00:15 NE 5 10.00 Partly Cloudy SCT100 63.5 58.3 83% 29.93 0.0
02 23:55 NE 3 10.00 Mostly Cloudy BKN100 BKN120 63.3 58.5 84% 29.93 0.0
02 23:35 NE 3 10.00 Partly Cloudy SCT120 63.5 59.4 86% 29.93 0.0
02 23:15 NE 5 10.00 Partly Cloudy SCT100 63.5 59.9 88% 29.93 0.0
02 22:55 NE 7 10.00 Overcast OVC110 64 60.1 87% 29.93 0.0
02 22:35 NE 6 10.00 Mostly Cloudy BKN110 63.5 58.6 84% 29.93 0.0
02 22:15 NE 5 10.00 Partly Cloudy SCT110 57.6 55.8 94% 29.92 0.0
02 21:55 Calm 10.00 Fair CLR 56.5 54.5 93% 29.92 0.0
02 21:35 Calm 10.00 Fair CLR 58.1 56.1 93% 29.91 0.0
02 21:15 Calm 10.00 Fair CLR 62.2 58.5 88% 29.91 0.0
02 20:55 N 5 10.00 Fair CLR 60.8 58.3 91% 29.91 0.0
02 20:35 Calm 10.00 Fair CLR 63.1 59.2 87% 29.9 0.0
02 20:15 N 3 10.00 Fair CLR 64.4 59.9 85% 29.9 0.0
02 19:55 N 3 10.00 Fair CLR 66 59.9 81% 29.89 0.0
02 19:35 Calm 10.00 Fair CLR 68.7 60.1 74% 29.89 0.0
02 19:15 Calm 10.00 Fair CLR 71.1 59.9 68% 29.89 0.0
02 18:55 Calm 10.00 Fair CLR 73 61 82.4 72.9 66% 29.89 0.0
02 18:35 Calm 10.00 Fair CLR 73.4 60.8 65% 29.89 0.0
02 18:15 Calm 10.00 Fair CLR 74.1 61.2 64% 29.89 0.0
02 17:55 NE 5 10.00 Fair CLR 75 61.3 63% 77 29.88 0.0
02 17:35 NE 6 10.00 Fair CLR 76.1 61 60% 78 29.88 0.0
02 17:15 NE 6 10.00 Fair CLR 76.1 61.9 62% 78 29.88 0.0
02 16:55 NE 6 10.00 Fair CLR 78.8 63 58% 80 29.88 0.0
02 16:35 NE 5 10.00 Fair CLR 78.8 61.9 56% 80 29.88 0.0
02 16:15 NE 5 10.00 Fair CLR 79.7 61.2 53% 81 29.88 0.0
02 15:55 N 8 10.00 Fair CLR 81.3 59.7 48% 82 29.88 0.0
02 15:35 NE 5 10.00 Fair CLR 81.7 60.4 49% 82 29.89 0.0
02 15:15 NE 7 10.00 Fair CLR 80.2 60.3 51% 81 29.89 0.0
02 14:55 NE 6 10.00 Fair CLR 80.1 60.8 52% 81 29.9 0.0
02 14:35 NE 5 10.00 Fair CLR 80.8 61.7 52% 82 29.9 0.0
02 14:15 NE 5 10.00 Fair CLR 80.4 61.2 52% 81 29.9 0.0
02 14:00 NE 5 10.00 Fair CLR 81.3 61.2 50% 82 29.9 0.0
02 13:35 NE 5 10.00 Partly Cloudy SCT050 82.2 60.1 47% 83 29.91 0.0
02 13:15 W 3 10.00 Partly Cloudy SCT050 81.5 58.5 46% 82 29.91 0.0
02 12:55 Calm 10.00 Fair CLR 81 58.5 81 52.2 46% 81 29.91 0.0
02 12:35 SW 7 10.00 Fair CLR 79.9 58.5 48% 81 29.92 0.0
02 12:15 Calm 10.00 Fair CLR 79.5 59.9 51% 80 29.92 0.0
02 11:55 N 3 10.00 Fair CLR 78.6 60.8 54% 80 29.93 0.0
02 11:35 Calm 10.00 Fair CLR 77 59.9 56% 79 29.93 0.0
02 11:15 SW 3 10.00 Fair CLR 76.1 59.7 57% 78 29.93 0.0
02 10:55 S 3 10.00 Fair CLR 75.2 59.9 59% 78 29.92 0.0
02 10:35 Calm 10.00 Fair CLR 73.6 59.5 62% 29.93 0.0
02 10:15 SE 3 10.00 Fair CLR 72.5 59.9 65% 29.92 0.0
02 09:55 Calm 10.00 Fair CLR 71.6 60.3 68% 29.93 0.0
02 09:35 Calm 10.00 Fair CLR 70 60.3 71% 29.93 0.0
02 09:15 Calm 10.00 Fair CLR 68.5 59.5 73% 29.93 0.0
02 08:55 Calm 10.00 Fair CLR 66.4 59.2 78% 29.94 0.0
02 08:35 Calm 10.00 Fair CLR 64.6 59.4 83% 29.94 0.0
02 08:15 Calm 10.00 Fair CLR 61.9 59.2 91% 29.94 0.0
02 07:55 Calm 10.00 Fair CLR 59.5 58.8 97% 29.94 0.0
02 07:35 Calm 10.00 Fair CLR 54.3 53.4 97% 29.94 0.0
02 07:15 Calm 0.75 Fog/Mist VV005 53.2 52.3 97% 29.92 0.0
02 06:55 Calm 7.00 Fair CLR 54.1 53.2 63.9 53.8 97% 29.92 0.0
02 06:35 Calm 0.75 Fog/Mist VV005 54.5 53.2 96% 29.91 0.0
02 06:15 Calm 7.00 Fair CLR 54.9 53.2 94% 29.91 0.0
02 05:55 Calm 10.00 Fair CLR 57.7 55.6 93% 29.91 0.0
02 05:35 Calm 10.00 Fair CLR 60.8 57.4 89% 29.92 0.0
02 05:15 Calm 10.00 Fair CLR 61.9 58.1 88% 29.92 0.0
02 04:55 SW 6 10.00 Fair CLR 59.2 57.6 94% 29.93 0.0
02 04:35 Calm 10.00 Fair CLR 57.9 55.6 92% 29.92 0.0
02 04:20 Calm 10.00 Fair CLR 58.8 57 94% 29.91 0.0
02 03:55 Calm 10.00 Fair CLR 59.9 57.7 93% 29.91 0.0
02 03:35 Calm 10.00 Fair CLR 60.6 58.3 92% 29.91 0.0
02 03:15 S 5 10.00 Fair CLR 61.2 59 93% 29.91 0.0
02 02:55 Calm 10.00 Partly Cloudy SCT120 60.4 58.3 93% 29.91 0.0
02 02:35 Calm 10.00 Fair CLR 60.8 58.1 91% 29.91 0.0
02 02:15 Calm 10.00 Fair CLR 62.8 59 88% 29.91 0.0
02 01:55 SW 5 10.00 Fair CLR 63.5 59 85% 29.92 0.0
02 01:35 SW 3 10.00 Partly Cloudy SCT120 62.2 58.3 87% 29.92 0.0
02 01:15 Calm 10.00 Mostly Cloudy BKN120 61 58.3 91% 29.91 0.0
02 00:55 Calm 10.00 Mostly Cloudy BKN120 62.2 59 75.9 60.1 89% 29.92 0.0
02 00:35 Calm 10.00 Partly Cloudy SCT120 63 59.2 88% 29.92 0.0
02 00:15 Calm 10.00 Fair CLR 63.5 59 85% 29.92 0.0
01 23:55 Calm 10.00 Fair CLR 62.2 57.6 85% 29.92 0.0
01 23:35 SW 5 10.00 Fair CLR 63 58.3 85% 29.93 0.0
01 23:15 SW 5 10.00 Fair CLR 60.6 58.1 91% 29.93 0.0
01 22:55 Calm 10.00 Fair CLR 61 57.9 90% 29.92 0.0
01 22:35 Calm 10.00 Fair CLR 61 57.9 90% 29.92 0.0
01 22:15 Calm 10.00 Fair CLR 61.3 58.5 90% 29.91 0.0
01 21:55 Calm 10.00 Fair CLR 63.3 58.5 84% 29.91 0.0
01 21:15 SW 3 10.00 Fair CLR 69.1 58.1 68% 29.91 0.0
01 20:55 SW 5 10.00 Fair CLR 69.8 57.9 66% 29.91 0.0
01 20:35 SW 5 10.00 Fair CLR 70.7 57.6 63% 29.9 0.0
01 20:15 SW 7 10.00 Fair CLR 71.2 57.6 62% 29.9 0.0
01 19:55 SW 6 10.00 Fair CLR 72.1 57.4 60% 29.89 0.0
01 19:35 SW 6 10.00 Fair CLR 73.6 57.6 57% 29.88 0.0
01 19:15 SW 6 10.00 Fair CLR 74.5 58.1 57% 29.88 0.0
01 18:55 SW 8 10.00 Fair CLR 76.1 58.3 85.1 76.1 54% 78 29.88 0.0
01 18:35 SW 9 10.00 Fair CLR 77.2 58.3 52% 79 29.88 0.0
01 18:15 SW 9 10.00 Fair CLR 77.5 58.3 52% 79 29.88 0.0
Date Time (cdt) Wind (mph) Vis. (mi.) Weather Sky Cond. Air Dwpt Max. Min. Relative Humidity Wind Chill (°F) Heat Index (°F) altimeter (in) sea level (mb) 1 hr 3 hr 6 hr
6 hour
Temperature (ºF) Pressure Precipitation (in)